createdAt,value
2022-09-16T00:00:54.884Z,5.90
2022-09-16T00:03:25.834Z,5.60
2022-09-16T00:05:56.910Z,6.90
2022-09-16T00:08:27.736Z,4.90
2022-09-16T00:11:02.656Z,4.20
2022-09-16T00:13:33.484Z,5.10
2022-09-16T00:16:07.995Z,4.60
2022-09-16T00:18:38.891Z,6.00
2022-09-16T00:21:12.501Z,5.10
2022-09-16T00:23:43.458Z,5.10
2022-09-16T00:26:14.458Z,5.50
2022-09-16T00:28:45.438Z,4.90
2022-09-16T00:31:16.511Z,4.50
2022-09-16T00:33:47.526Z,4.60
2022-09-16T00:36:20.199Z,4.90
2022-09-16T00:38:55.001Z,5.00
2022-09-16T00:41:28.101Z,5.40
2022-09-16T00:44:00.972Z,5.30
2022-09-16T00:46:37.206Z,5.10
2022-09-16T00:49:13.649Z,4.90
2022-09-16T00:51:45.702Z,5.50
2022-09-16T00:54:19.861Z,4.90
2022-09-16T00:56:53.872Z,4.50
2022-09-16T00:59:28.047Z,4.60
2022-09-16T01:02:01.275Z,4.60
2022-09-16T01:04:36.578Z,4.80
2022-09-16T01:07:07.966Z,4.50
2022-09-16T01:09:39.811Z,4.80
2022-09-16T01:12:10.665Z,4.80
2022-09-16T01:15:00.393Z,4.50
2022-09-16T01:17:44.075Z,4.20
2022-09-16T01:20:37.312Z,4.90
2022-09-16T01:23:38.539Z,4.20
2022-09-16T01:26:30.579Z,4.70
2022-09-16T01:29:25.412Z,5.00
2022-09-16T01:32:05.561Z,4.30
2022-09-16T01:34:43.769Z,4.70
2022-09-16T01:37:23.580Z,4.30
2022-09-16T01:40:04.460Z,4.70
2022-09-16T01:42:43.121Z,4.90
2022-09-16T01:45:25.141Z,4.30
2022-09-16T01:48:04.020Z,3.80
2022-09-16T01:50:39.629Z,4.00
2022-09-16T01:53:15.460Z,4.10
2022-09-16T01:55:54.325Z,4.20
2022-09-16T01:58:30.436Z,4.40
2022-09-16T02:01:07.557Z,4.10
2022-09-16T02:03:42.097Z,4.00
2022-09-16T02:06:17.946Z,4.00
2022-09-16T02:08:54.218Z,3.60
2022-09-16T02:11:26.192Z,3.40
2022-09-16T02:14:00.693Z,3.00
2022-09-16T02:16:36.719Z,3.70
2022-09-16T02:19:14.340Z,3.60
2022-09-16T02:21:47.178Z,3.60
2022-09-16T02:24:20.891Z,3.30
2022-09-16T02:27:00.905Z,3.20
2022-09-16T02:29:38.634Z,3.50
2022-09-16T02:32:11.392Z,3.80
2022-09-16T02:34:45.869Z,3.50
2022-09-16T02:37:20.520Z,4.10
2022-09-16T02:39:56.694Z,3.30
2022-09-16T02:42:28.667Z,3.40
2022-09-16T02:45:00.749Z,4.00
2022-09-16T02:47:38.798Z,3.40
2022-09-16T02:50:16.461Z,3.20
2022-09-16T02:52:54.578Z,3.60
2022-09-16T02:55:37.740Z,3.10
2022-09-16T02:58:08.827Z,4.20
2022-09-16T03:00:44.712Z,3.50
2022-09-16T03:03:16.294Z,3.90
2022-09-16T03:06:19.494Z,3.60
2022-09-16T03:08:51.572Z,3.90
2022-09-16T03:11:47.841Z,4.30
2022-09-16T03:14:38.786Z,5.50
2022-09-16T03:17:24.194Z,5.70
2022-09-16T03:20:07.119Z,4.30
2022-09-16T03:22:53.536Z,3.80
2022-09-16T03:25:39.385Z,4.00
2022-09-16T03:28:16.177Z,3.60
2022-09-16T03:30:54.647Z,4.00
2022-09-16T03:33:30.846Z,4.70
2022-09-16T03:36:05.330Z,4.10
2022-09-16T03:38:37.819Z,3.60
2022-09-16T03:41:11.216Z,4.50
2022-09-16T03:43:42.122Z,3.90
2022-09-16T03:46:15.020Z,4.20
2022-09-16T03:48:45.936Z,4.30
2022-09-16T03:51:17.349Z,3.90
2022-09-16T03:53:48.195Z,4.60
2022-09-16T03:56:19.031Z,3.50
2022-09-16T03:58:51.523Z,4.10
2022-09-16T04:01:22.621Z,3.90
2022-09-16T04:03:53.680Z,4.90
2022-09-16T04:06:24.609Z,3.70
2022-09-16T04:08:59.398Z,4.60
2022-09-16T04:11:32.270Z,3.70
2022-09-16T04:14:03.258Z,3.70
2022-09-16T04:16:36.533Z,3.70
2022-09-16T04:19:07.347Z,4.90
2022-09-16T04:21:40.086Z,4.10
2022-09-16T04:24:13.672Z,3.70
2022-09-16T04:26:45.424Z,3.80
2022-09-16T04:29:17.381Z,4.10
2022-09-16T04:31:48.215Z,4.20
2022-09-16T04:34:19.880Z,4.60
2022-09-16T04:36:51.067Z,4.60
2022-09-16T04:39:22.780Z,4.10
2022-09-16T04:41:53.840Z,4.50
2022-09-16T04:44:24.752Z,4.70
2022-09-16T04:46:56.195Z,4.20
2022-09-16T04:49:27.573Z,4.70
2022-09-16T04:51:59.963Z,3.80
2022-09-16T04:54:31.281Z,5.00
2022-09-16T04:57:02.643Z,3.90
2022-09-16T04:59:33.670Z,5.10
2022-09-16T05:02:04.635Z,4.80
2022-09-16T05:04:36.268Z,3.70
2022-09-16T05:07:08.242Z,4.00
2022-09-16T05:09:39.371Z,9.40
2022-09-16T05:12:10.922Z,4.40
2022-09-16T05:14:42.032Z,3.80
2022-09-16T05:17:39.427Z,4.00
2022-09-16T05:20:09.300Z,3.70
2022-09-16T05:22:41.692Z,3.10
2022-09-16T05:25:13.571Z,2.80
2022-09-16T05:27:44.697Z,3.60
2022-09-16T05:30:17.535Z,3.10
2022-09-16T05:32:49.845Z,3.40
2022-09-16T05:35:20.907Z,3.30
2022-09-16T05:37:52.527Z,4.00
2022-09-16T05:40:24.260Z,3.00
2022-09-16T05:42:55.561Z,2.80
2022-09-16T05:45:32.426Z,2.70
2022-09-16T05:48:13.313Z,2.70
2022-09-16T05:50:51.861Z,3.30
2022-09-16T05:53:23.406Z,2.80
2022-09-16T05:56:02.898Z,2.80
2022-09-16T05:58:35.408Z,3.00
2022-09-16T06:01:10.365Z,2.70
2022-09-16T06:03:42.749Z,2.70
2022-09-16T06:06:20.156Z,3.10
2022-09-16T06:08:51.957Z,2.80
2022-09-16T06:11:26.755Z,2.70
2022-09-16T06:14:00.192Z,2.70
2022-09-16T06:16:33.468Z,2.40
2022-09-16T06:19:06.814Z,2.70
2022-09-16T06:21:38.060Z,2.70
2022-09-16T06:24:12.000Z,2.70
2022-09-16T06:26:44.943Z,3.30
2022-09-16T06:29:17.071Z,2.60
2022-09-16T06:31:48.145Z,2.50
2022-09-16T06:34:20.154Z,2.40
2022-09-16T06:36:51.016Z,2.30
2022-09-16T06:39:24.657Z,2.60
2022-09-16T06:41:55.575Z,2.80
2022-09-16T06:44:28.278Z,2.00
2022-09-16T06:47:07.912Z,1.90
2022-09-16T06:49:39.033Z,2.00
2022-09-16T06:52:11.887Z,2.20
2022-09-16T06:54:42.815Z,2.50
2022-09-16T06:57:23.777Z,2.10
2022-09-16T06:59:55.119Z,2.30
2022-09-16T07:02:26.807Z,2.10
2022-09-16T07:04:58.536Z,2.20
2022-09-16T07:07:39.692Z,2.20
2022-09-16T07:10:14.607Z,1.80
2022-09-16T07:12:45.669Z,2.60
2022-09-16T07:15:17.659Z,1.70
2022-09-16T07:17:49.236Z,2.10
2022-09-16T07:20:20.980Z,2.20
2022-09-16T07:22:54.070Z,1.90
2022-09-16T07:25:25.065Z,1.70
2022-09-16T07:27:58.105Z,2.20
2022-09-16T07:30:30.384Z,1.80
2022-09-16T07:33:01.913Z,1.90
2022-09-16T07:35:35.153Z,2.00
2022-09-16T07:38:08.115Z,2.20
2022-09-16T07:40:41.044Z,2.20
2022-09-16T07:43:32.816Z,2.10
2022-09-16T07:46:04.006Z,1.90
2022-09-16T07:48:35.814Z,2.00
2022-09-16T07:51:09.747Z,1.90
2022-09-16T07:53:42.316Z,2.50
2022-09-16T07:56:15.950Z,2.00
2022-09-16T07:58:47.988Z,2.20
2022-09-16T08:01:19.638Z,1.50
2022-09-16T08:03:52.869Z,2.00
2022-09-16T08:06:29.940Z,2.30
2022-09-16T08:09:10.619Z,3.00
2022-09-16T08:11:52.172Z,2.70
2022-09-16T08:14:22.990Z,2.50
2022-09-16T08:16:55.126Z,2.90
2022-09-16T08:19:26.931Z,2.00
2022-09-16T08:21:58.843Z,1.90
2022-09-16T08:24:29.775Z,2.00
2022-09-16T08:27:00.641Z,2.70
2022-09-16T08:29:31.608Z,2.10
2022-09-16T08:32:02.807Z,2.20
2022-09-16T08:34:33.937Z,1.90
2022-09-16T08:37:04.923Z,2.00
2022-09-16T08:40:23.127Z,2.40
2022-09-16T08:43:05.665Z,2.10
2022-09-16T08:45:45.300Z,1.50
2022-09-16T08:48:30.950Z,2.00
2022-09-16T08:51:06.304Z,1.70
2022-09-16T08:53:43.162Z,2.10
2022-09-16T08:56:19.325Z,1.60
2022-09-16T08:58:53.658Z,1.80
2022-09-16T09:01:31.571Z,2.40
2022-09-16T09:04:13.011Z,1.30
2022-09-16T09:07:00.737Z,1.80
2022-09-16T09:09:46.929Z,1.60
2022-09-16T09:12:26.784Z,1.80
2022-09-16T09:15:13.815Z,1.70
2022-09-16T09:18:05.121Z,1.90
2022-09-16T09:20:49.171Z,1.70
2022-09-16T09:23:50.886Z,1.80
2022-09-16T09:26:28.652Z,1.60
2022-09-16T09:29:29.535Z,1.60
2022-09-16T09:32:16.533Z,1.40
2022-09-16T09:35:03.199Z,2.00
2022-09-16T09:37:53.729Z,1.70
2022-09-16T09:40:38.712Z,1.50
2022-09-16T09:43:16.237Z,1.70
2022-09-16T09:45:56.816Z,2.50
2022-09-16T09:48:36.731Z,2.10
2022-09-16T09:51:18.000Z,1.80
2022-09-16T09:53:54.536Z,1.90
2022-09-16T09:56:30.214Z,1.60
2022-09-16T09:59:11.352Z,1.90
2022-09-16T10:01:45.230Z,1.60
2022-09-16T10:04:17.474Z,1.50
2022-09-16T10:06:49.888Z,1.60
2022-09-16T10:09:23.085Z,1.50
2022-09-16T10:11:56.816Z,1.50
2022-09-16T10:14:31.975Z,2.00
2022-09-16T10:17:14.908Z,1.80
2022-09-16T10:19:57.914Z,2.20
2022-09-16T10:22:31.552Z,1.50
2022-09-16T10:25:06.262Z,1.90
2022-09-16T10:30:16.570Z,2.00
2022-09-16T10:32:56.065Z,1.80
2022-09-16T10:35:29.915Z,1.50
2022-09-16T10:38:03.902Z,1.90
2022-09-16T10:40:35.538Z,1.90
2022-09-16T10:43:16.308Z,1.60
2022-09-16T10:45:50.829Z,2.20
2022-09-16T10:48:24.598Z,1.70
2022-09-16T10:51:22.404Z,1.80
2022-09-16T10:53:58.427Z,1.40
2022-09-16T10:56:33.858Z,1.80
2022-09-16T10:59:12.591Z,1.50
2022-09-16T11:01:53.101Z,1.80
2022-09-16T11:05:01.689Z,1.50
2022-09-16T11:07:45.198Z,1.30
2022-09-16T11:10:27.610Z,1.40
2022-09-16T11:13:23.336Z,1.50
2022-09-16T11:16:07.126Z,1.30
2022-09-16T11:18:54.439Z,1.40
2022-09-16T11:21:36.621Z,1.80
2022-09-16T11:24:45.572Z,1.30
2022-09-16T11:27:25.860Z,1.60
2022-09-16T11:30:09.921Z,1.70
2022-09-16T11:33:01.734Z,1.40
2022-09-16T11:35:44.475Z,1.40
2022-09-16T11:38:23.183Z,1.30
2022-09-16T11:41:03.177Z,1.50
2022-09-16T11:44:08.135Z,1.40
2022-09-16T11:46:54.314Z,2.90
2022-09-16T11:49:43.220Z,1.40
2022-09-16T11:52:28.967Z,1.70
2022-09-16T11:55:18.533Z,1.40
2022-09-16T11:57:56.073Z,1.00
2022-09-16T12:00:31.865Z,1.80
2022-09-16T12:03:06.990Z,1.20
2022-09-16T12:05:53.807Z,1.60
2022-09-16T12:08:31.544Z,1.20
2022-09-16T12:11:09.020Z,1.30
2022-09-16T12:13:46.019Z,1.50
2022-09-16T12:16:21.138Z,1.40
2022-09-16T12:21:29.657Z,1.40
2022-09-16T12:24:07.083Z,1.40
2022-09-16T12:26:42.153Z,1.30
2022-09-16T12:29:19.920Z,1.60
2022-09-16T12:31:57.232Z,1.30
2022-09-16T12:34:36.571Z,1.40
2022-09-16T12:37:14.116Z,1.60
2022-09-16T12:39:46.178Z,1.30
2022-09-16T12:43:02.434Z,1.60
2022-09-16T12:46:14.221Z,0.90
2022-09-16T12:49:13.458Z,1.30
2022-09-16T12:52:12.476Z,1.10
2022-09-16T12:55:11.422Z,1.40
2022-09-16T12:57:56.422Z,1.70
2022-09-16T13:00:31.759Z,2.00
2022-09-16T13:03:11.732Z,1.80
2022-09-16T13:05:46.457Z,1.40
2022-09-16T13:08:27.428Z,1.30
2022-09-16T13:11:29.269Z,1.60
2022-09-16T13:13:56.637Z,2.60
2022-09-16T13:16:33.631Z,1.30
2022-09-16T13:19:34.421Z,1.40
2022-09-16T13:22:22.124Z,1.50
2022-09-16T13:25:06.672Z,1.60
2022-09-16T13:28:26.716Z,1.60
2022-09-16T13:31:10.851Z,1.40
2022-09-16T13:33:44.570Z,1.90
2022-09-16T13:36:32.308Z,2.20
2022-09-16T13:39:05.379Z,1.50
2022-09-16T13:41:41.131Z,1.40
2022-09-16T13:44:41.266Z,1.60
2022-09-16T13:47:31.240Z,1.20
2022-09-16T13:50:11.082Z,1.60
2022-09-16T13:52:43.426Z,1.20
2022-09-16T13:55:25.488Z,1.30
2022-09-16T13:58:04.120Z,1.10
2022-09-16T14:00:41.665Z,1.30
2022-09-16T14:03:40.075Z,1.30
2022-09-16T14:06:31.078Z,1.30
2022-09-16T14:09:16.036Z,1.40
2022-09-16T14:11:56.619Z,1.40
2022-09-16T14:17:25.509Z,1.50
2022-09-16T14:20:00.860Z,1.40
2022-09-16T14:22:34.378Z,1.70
2022-09-16T14:28:18.461Z,1.30
2022-09-16T14:30:52.330Z,1.40
2022-09-16T14:33:28.745Z,1.60
2022-09-16T14:36:03.588Z,1.40
2022-09-16T14:38:46.128Z,1.30
2022-09-16T14:41:37.366Z,1.50
2022-09-16T14:44:29.398Z,1.40
2022-09-16T14:47:29.448Z,1.40
2022-09-16T14:50:38.892Z,1.40
2022-09-16T14:53:34.833Z,1.50
2022-09-16T14:56:19.180Z,1.60
2022-09-16T14:58:51.095Z,1.30
2022-09-16T15:01:26.141Z,1.30
2022-09-16T15:04:24.487Z,1.10
2022-09-16T15:07:03.503Z,1.30
2022-09-16T15:09:52.978Z,1.30
2022-09-16T15:12:29.443Z,1.40
2022-09-16T15:15:04.306Z,1.30
2022-09-16T15:17:35.520Z,1.40
2022-09-16T15:20:08.994Z,1.50
2022-09-16T15:22:43.036Z,2.10
2022-09-16T15:25:24.680Z,2.00
2022-09-16T15:28:07.663Z,1.50
2022-09-16T15:30:51.752Z,2.20
2022-09-16T15:33:42.956Z,1.80
2022-09-16T15:36:35.910Z,2.60
2022-09-16T15:39:23.325Z,1.50
2022-09-16T15:42:11.055Z,1.70
2022-09-16T15:44:48.964Z,1.60
2022-09-16T15:47:23.096Z,2.20
2022-09-16T15:49:59.382Z,1.90
2022-09-16T15:52:34.161Z,2.10
2022-09-16T15:55:07.561Z,2.20
2022-09-16T15:57:42.088Z,1.20
2022-09-16T16:00:16.886Z,1.80
2022-09-16T16:02:51.840Z,1.50
2022-09-16T16:07:57.279Z,1.50
2022-09-16T16:10:31.806Z,1.20
2022-09-16T16:13:05.214Z,1.20
2022-09-16T16:15:39.221Z,1.60
2022-09-16T16:18:12.246Z,1.30
2022-09-16T16:20:43.450Z,1.40
2022-09-16T16:23:15.078Z,1.50
2022-09-16T16:25:48.777Z,2.60
2022-09-16T16:28:22.392Z,2.20
2022-09-16T16:30:53.498Z,2.90
2022-09-16T16:33:24.921Z,1.40
2022-09-16T16:35:55.942Z,1.50
2022-09-16T16:38:27.200Z,1.20
2022-09-16T16:40:58.924Z,1.50
2022-09-16T16:43:31.261Z,1.40
2022-09-16T16:46:02.509Z,2.10
2022-09-16T16:48:34.352Z,1.50
2022-09-16T16:51:09.132Z,1.90
2022-09-16T16:53:40.976Z,1.60
2022-09-16T16:56:15.529Z,1.90
2022-09-16T16:58:50.350Z,2.10
2022-09-16T17:01:22.427Z,1.50
2022-09-16T17:03:54.317Z,1.60
2022-09-16T17:06:25.541Z,1.90
2022-09-16T17:08:56.739Z,1.70
2022-09-16T17:11:28.947Z,2.10
2022-09-16T17:14:03.700Z,2.10
2022-09-16T17:16:35.983Z,2.10
2022-09-16T17:19:07.331Z,2.50
2022-09-16T17:21:39.910Z,2.50
2022-09-16T17:24:11.204Z,1.90
2022-09-16T17:26:44.946Z,2.10
2022-09-16T17:29:16.474Z,2.10
2022-09-16T17:31:47.830Z,2.30
2022-09-16T17:34:19.168Z,2.60
2022-09-16T17:36:50.135Z,2.20
2022-09-16T17:39:23.289Z,4.10
2022-09-16T17:42:12.122Z,4.80
2022-09-16T17:44:44.418Z,2.80
2022-09-16T17:47:15.772Z,2.60
2022-09-16T17:49:47.324Z,3.30
2022-09-16T17:52:22.313Z,2.60
2022-09-16T17:55:52.735Z,2.90
2022-09-16T17:58:40.492Z,3.40
2022-09-16T18:01:14.089Z,4.00
2022-09-16T18:03:54.386Z,3.40
2022-09-16T18:06:28.452Z,4.70
2022-09-16T18:09:03.783Z,5.70
2022-09-16T18:11:34.955Z,3.70
2022-09-16T18:14:07.999Z,3.70
2022-09-16T18:16:40.159Z,3.40
2022-09-16T18:19:12.296Z,3.50
2022-09-16T18:21:44.412Z,3.40
2022-09-16T18:24:15.782Z,3.10
2022-09-16T18:26:47.836Z,3.00
2022-09-16T18:29:19.230Z,3.30
2022-09-16T18:32:49.202Z,3.40
2022-09-16T18:35:20.487Z,3.40
2022-09-16T18:37:51.865Z,3.70
2022-09-16T18:41:21.378Z,3.30
2022-09-16T18:43:57.205Z,3.20
2022-09-16T18:46:53.248Z,3.20
2022-09-16T19:00:42.842Z,3.50
2022-09-16T19:03:11.173Z,3.50
2022-09-16T19:05:39.640Z,3.70
2022-09-16T19:08:09.388Z,3.80
2022-09-16T19:10:38.513Z,4.00
2022-09-16T19:13:07.293Z,4.30
2022-09-16T19:15:35.727Z,4.30
2022-09-16T19:18:05.192Z,6.20
2022-09-16T19:20:33.494Z,6.00
2022-09-16T19:23:01.954Z,5.10
2022-09-16T19:25:30.592Z,4.90
2022-09-16T19:27:59.063Z,4.30
2022-09-16T19:30:27.363Z,4.10
2022-09-16T19:32:56.151Z,4.00
2022-09-16T19:35:28.785Z,3.60
2022-09-16T19:38:02.739Z,3.90
2022-09-16T19:40:31.455Z,3.70
2022-09-16T19:42:59.661Z,3.80
2022-09-16T19:45:28.117Z,4.10
2022-09-16T19:47:56.425Z,3.80
2022-09-16T19:50:26.251Z,4.50
2022-09-16T19:52:54.496Z,4.10
2022-09-16T19:55:23.882Z,3.80
2022-09-16T19:58:02.869Z,3.70
2022-09-16T20:00:52.623Z,3.30
2022-09-16T20:03:20.278Z,3.70
2022-09-16T20:05:49.490Z,3.90
2022-09-16T20:08:17.769Z,3.60
2022-09-16T20:10:47.176Z,4.30
2022-09-16T20:13:15.563Z,3.90
2022-09-16T20:15:43.851Z,3.70
2022-09-16T20:18:22.179Z,3.90
2022-09-16T20:20:50.431Z,4.30
2022-09-16T20:23:18.836Z,3.40
2022-09-16T20:25:56.200Z,3.80
2022-09-16T20:28:28.523Z,3.20
2022-09-16T20:30:56.976Z,3.50
2022-09-16T20:33:33.117Z,3.50
2022-09-16T20:36:04.509Z,3.80
2022-09-16T20:38:34.453Z,4.70
2022-09-16T20:41:06.140Z,4.50
2022-09-16T20:43:35.365Z,3.90
2022-09-16T20:46:08.623Z,3.60
2022-09-16T20:48:37.016Z,3.50
2022-09-16T20:51:07.670Z,3.50
2022-09-16T20:53:37.820Z,3.60
2022-09-16T20:56:10.518Z,3.30
2022-09-16T20:58:39.647Z,3.40
2022-09-16T21:01:16.151Z,3.40
2022-09-16T21:03:50.620Z,3.70
2022-09-16T21:06:19.969Z,3.90
2022-09-16T21:09:13.879Z,3.40
2022-09-16T21:11:44.202Z,2.90
2022-09-16T21:14:15.970Z,2.90
2022-09-16T21:16:45.884Z,3.10
2022-09-16T21:19:14.818Z,5.80
2022-09-16T21:21:45.738Z,5.30
2022-09-16T21:24:15.250Z,3.30
2022-09-16T21:26:46.020Z,2.50
2022-09-16T21:29:16.948Z,2.70
2022-09-16T21:31:45.653Z,3.10
2022-09-16T21:34:15.957Z,2.80
2022-09-16T21:37:34.188Z,3.10
2022-09-16T21:43:45.123Z,2.70
2022-09-16T21:46:14.974Z,3.20
2022-09-16T21:48:43.779Z,2.60
2022-09-16T21:51:17.026Z,2.90
2022-09-16T21:53:46.971Z,3.10
2022-09-16T21:56:42.388Z,2.60
2022-09-16T21:59:11.154Z,2.90
2022-09-16T22:01:42.815Z,3.00
2022-09-16T22:04:16.531Z,3.30
2022-09-16T22:06:48.118Z,2.90
2022-09-16T22:09:44.061Z,2.70
2022-09-16T22:12:12.373Z,2.80
2022-09-16T22:14:43.548Z,2.90
2022-09-16T22:17:12.606Z,3.30
2022-09-16T22:19:40.942Z,3.00
2022-09-16T22:22:09.242Z,3.20
2022-09-16T22:28:49.856Z,3.40
2022-09-16T22:31:21.536Z,3.10
2022-09-16T22:33:53.050Z,4.00
2022-09-16T22:36:23.287Z,3.70
2022-09-16T22:38:53.807Z,3.70
2022-09-16T22:41:23.454Z,3.80
2022-09-16T22:43:53.494Z,4.00
2022-09-16T22:46:24.455Z,3.70
2022-09-16T22:48:54.953Z,4.10
2022-09-16T22:54:22.239Z,3.60
2022-09-16T22:57:00.242Z,3.40
2022-09-16T22:59:36.308Z,3.50
2022-09-16T23:02:07.719Z,3.40
2022-09-16T23:04:39.509Z,3.80
2022-09-16T23:07:10.599Z,4.20
2022-09-16T23:09:41.794Z,3.60
2022-09-16T23:12:16.083Z,3.40
2022-09-16T23:14:47.053Z,3.90
2022-09-16T23:17:43.020Z,3.20
2022-09-16T23:23:30.590Z,2.80
2022-09-16T23:29:16.297Z,3.00
2022-09-16T23:31:49.299Z,3.40
2022-09-16T23:34:22.813Z,3.20
2022-09-16T23:36:54.785Z,3.50
2022-09-16T23:39:26.078Z,2.90
2022-09-16T23:41:57.418Z,3.10
2022-09-16T23:44:28.572Z,4.00
2022-09-16T23:47:00.771Z,3.20
2022-09-16T23:49:31.944Z,3.00
2022-09-16T23:52:16.938Z,3.00
2022-09-16T23:54:47.937Z,2.90
2022-09-16T23:57:19.740Z,3.30
2022-09-16T23:59:51.739Z,2.70
